Terminal Aerodrome Forecast
Issued by NWS

Home | Current Version | Previous Version | Text Only | Print | Product List | Glossary On
Versions: 1 2 3 4 5 6 7 8 9 10 11 12 13 14 15 16 17 18
000
FTUS45 KTFX 021400 AAA
TAFCTB
TAF AMD
KCTB 021417Z 0214/0312 32012KT 6SM -SN BR SCT015 BKN025
      TEMPO 0214/0216 3SM -SN BR BKN015
     FM021600 01015KT P6SM VCSH SCT025 BKN040
     FM021800 35010KT P6SM SCT060 BKN120
     FM030000 23005KT P6SM FEW120=

USA.gov is the U.S. government's official web portal to all federal, state and local government web resources and services.